sensor_id;sensor_type;location;lat;lon;timestamp;temperature;humidity
19389;DHT22;9830;41.876;23.474;2023-06-14T00:00:19;15.60;99.90
19389;DHT22;9830;41.876;23.474;2023-06-14T00:02:45;15.70;99.90
19389;DHT22;9830;41.876;23.474;2023-06-14T00:05:11;15.60;99.90
19389;DHT22;9830;41.876;23.474;2023-06-14T00:07:41;15.70;99.90
19389;DHT22;9830;41.876;23.474;2023-06-14T00:10:14;15.60;99.90
19389;DHT22;9830;41.876;23.474;2023-06-14T00:12:40;15.50;99.90
19389;DHT22;9830;41.876;23.474;2023-06-14T00:15:07;15.50;99.90
19389;DHT22;9830;41.876;23.474;2023-06-14T00:17:35;15.50;99.90
19389;DHT22;9830;41.876;23.474;2023-06-14T00:20:03;15.70;99.90
19389;DHT22;9830;41.876;23.474;2023-06-14T00:22:33;15.80;99.90
19389;DHT22;9830;41.876;23.474;2023-06-14T00:24:59;15.70;99.90
19389;DHT22;9830;41.876;23.474;2023-06-14T00:27:25;15.80;99.90
19389;DHT22;9830;41.876;23.474;2023-06-14T00:29:51;15.70;99.90
19389;DHT22;9830;41.876;23.474;2023-06-14T00:32:18;15.80;99.90
19389;DHT22;9830;41.876;23.474;2023-06-14T00:34:44;15.80;99.90
19389;DHT22;9830;41.876;23.474;2023-06-14T00:37:09;15.80;99.90
19389;DHT22;9830;41.876;23.474;2023-06-14T00:39:35;15.80;99.90
19389;DHT22;9830;41.876;23.474;2023-06-14T00:42:01;15.90;99.90
19389;DHT22;9830;41.876;23.474;2023-06-14T00:44:26;15.80;99.90
19389;DHT22;9830;41.876;23.474;2023-06-14T00:46:52;15.70;99.90
19389;DHT22;9830;41.876;23.474;2023-06-14T00:49:19;15.70;99.90
19389;DHT22;9830;41.876;23.474;2023-06-14T00:51:45;15.70;99.90
19389;DHT22;9830;41.876;23.474;2023-06-14T00:54:11;15.70;99.90
19389;DHT22;9830;41.876;23.474;2023-06-14T00:56:37;15.70;99.90
19389;DHT22;9830;41.876;23.474;2023-06-14T00:59:04;15.80;99.90
19389;DHT22;9830;41.876;23.474;2023-06-14T01:01:33;15.80;99.90
19389;DHT22;9830;41.876;23.474;2023-06-14T01:03:59;15.70;99.90
19389;DHT22;9830;41.876;23.474;2023-06-14T01:06:47;15.70;99.90
19389;DHT22;9830;41.876;23.474;2023-06-14T01:09:35;15.70;99.90
19389;DHT22;9830;41.876;23.474;2023-06-14T01:12:29;15.70;99.90
19389;DHT22;9830;41.876;23.474;2023-06-14T01:14:57;15.80;99.90
19389;DHT22;9830;41.876;23.474;2023-06-14T01:17:25;15.70;99.90
19389;DHT22;9830;41.876;23.474;2023-06-14T01:19:52;15.70;99.90
19389;DHT22;9830;41.876;23.474;2023-06-14T01:22:25;15.60;99.90
19389;DHT22;9830;41.876;23.474;2023-06-14T01:24:51;15.50;99.90
19389;DHT22;9830;41.876;23.474;2023-06-14T01:27:24;15.50;99.90
19389;DHT22;9830;41.876;23.474;2023-06-14T01:29:55;15.40;99.90
19389;DHT22;9830;41.876;23.474;2023-06-14T01:32:24;15.30;99.90
19389;DHT22;9830;41.876;23.474;2023-06-14T01:34:51;15.20;99.90
19389;DHT22;9830;41.876;23.474;2023-06-14T01:37:18;15.20;99.90
19389;DHT22;9830;41.876;23.474;2023-06-14T01:39:44;15.20;99.90
19389;DHT22;9830;41.876;23.474;2023-06-14T01:42:12;15.20;99.90
19389;DHT22;9830;41.876;23.474;2023-06-14T01:44:39;15.20;99.90
19389;DHT22;9830;41.876;23.474;2023-06-14T01:47:05;15.30;99.90
19389;DHT22;9830;41.876;23.474;2023-06-14T01:49:34;15.30;99.90
19389;DHT22;9830;41.876;23.474;2023-06-14T01:52:00;15.20;99.90
19389;DHT22;9830;41.876;23.474;2023-06-14T01:54:26;15.20;99.90
19389;DHT22;9830;41.876;23.474;2023-06-14T01:56:52;15.20;99.90
19389;DHT22;9830;41.876;23.474;2023-06-14T01:59:18;15.20;99.90
19389;DHT22;9830;41.876;23.474;2023-06-14T02:01:44;15.20;99.90
19389;DHT22;9830;41.876;23.474;2023-06-14T02:04:11;15.20;99.90
19389;DHT22;9830;41.876;23.474;2023-06-14T02:06:37;15.20;99.90
19389;DHT22;9830;41.876;23.474;2023-06-14T02:09:03;15.20;99.90
19389;DHT22;9830;41.876;23.474;2023-06-14T02:11:29;15.20;99.90
19389;DHT22;9830;41.876;23.474;2023-06-14T02:13:55;15.30;99.90
19389;DHT22;9830;41.876;23.474;2023-06-14T02:16:21;15.30;99.90
19389;DHT22;9830;41.876;23.474;2023-06-14T02:18:47;15.30;99.90
19389;DHT22;9830;41.876;23.474;2023-06-14T02:21:14;15.20;99.90
19389;DHT22;9830;41.876;23.474;2023-06-14T02:23:40;15.10;99.90
19389;DHT22;9830;41.876;23.474;2023-06-14T02:26:05;15.20;99.90
19389;DHT22;9830;41.876;23.474;2023-06-14T02:28:31;15.20;99.90
19389;DHT22;9830;41.876;23.474;2023-06-14T02:30:57;15.20;99.90
19389;DHT22;9830;41.876;23.474;2023-06-14T02:33:22;15.20;99.90
19389;DHT22;9830;41.876;23.474;2023-06-14T02:35:48;15.30;99.90
19389;DHT22;9830;41.876;23.474;2023-06-14T02:38:14;15.30;99.90
19389;DHT22;9830;41.876;23.474;2023-06-14T02:40:40;15.30;99.90
19389;DHT22;9830;41.876;23.474;2023-06-14T02:43:08;15.30;99.90
19389;DHT22;9830;41.876;23.474;2023-06-14T02:45:33;15.30;99.90
19389;DHT22;9830;41.876;23.474;2023-06-14T02:47:59;15.30;99.90
19389;DHT22;9830;41.876;23.474;2023-06-14T02:50:25;15.40;99.90
19389;DHT22;9830;41.876;23.474;2023-06-14T02:52:53;15.30;99.90
19389;DHT22;9830;41.876;23.474;2023-06-14T02:55:21;15.30;99.90
19389;DHT22;9830;41.876;23.474;2023-06-14T02:57:47;15.20;99.90
19389;DHT22;9830;41.876;23.474;2023-06-14T03:00:13;15.30;99.90
19389;DHT22;9830;41.876;23.474;2023-06-14T03:02:39;15.20;99.90
19389;DHT22;9830;41.876;23.474;2023-06-14T03:05:05;15.30;99.90
19389;DHT22;9830;41.876;23.474;2023-06-14T03:07:32;15.30;99.90
19389;DHT22;9830;41.876;23.474;2023-06-14T03:09:58;15.30;99.90
19389;DHT22;9830;41.876;23.474;2023-06-14T03:12:23;15.30;99.90
19389;DHT22;9830;41.876;23.474;2023-06-14T03:14:50;15.40;99.90
19389;DHT22;9830;41.876;23.474;2023-06-14T03:17:16;15.30;99.90
19389;DHT22;9830;41.876;23.474;2023-06-14T03:19:43;15.30;99.90
19389;DHT22;9830;41.876;23.474;2023-06-14T03:22:08;15.40;99.90
19389;DHT22;9830;41.876;23.474;2023-06-14T03:24:34;15.50;99.90
19389;DHT22;9830;41.876;23.474;2023-06-14T03:27:02;15.50;99.90
19389;DHT22;9830;41.876;23.474;2023-06-14T03:29:28;15.60;99.90
19389;DHT22;9830;41.876;23.474;2023-06-14T03:32:01;15.70;99.90
19389;DHT22;9830;41.876;23.474;2023-06-14T03:34:27;15.70;99.90
19389;DHT22;9830;41.876;23.474;2023-06-14T03:36:53;15.80;99.90
19389;DHT22;9830;41.876;23.474;2023-06-14T03:39:19;15.80;99.90
19389;DHT22;9830;41.876;23.474;2023-06-14T03:41:45;15.70;99.90
19389;DHT22;9830;41.876;23.474;2023-06-14T03:44:11;15.70;99.90
19389;DHT22;9830;41.876;23.474;2023-06-14T03:46:36;15.70;99.90
19389;DHT22;9830;41.876;23.474;2023-06-14T03:49:02;15.70;99.90
19389;DHT22;9830;41.876;23.474;2023-06-14T03:51:28;15.80;99.90
19389;DHT22;9830;41.876;23.474;2023-06-14T03:53:54;15.90;99.90
19389;DHT22;9830;41.876;23.474;2023-06-14T03:56:21;16.00;99.90
19389;DHT22;9830;41.876;23.474;2023-06-14T03:58:47;16.00;99.90
19389;DHT22;9830;41.876;23.474;2023-06-14T04:01:13;16.00;99.90
19389;DHT22;9830;41.876;23.474;2023-06-14T04:03:38;15.90;99.90
19389;DHT22;9830;41.876;23.474;2023-06-14T04:06:05;15.80;99.90
19389;DHT22;9830;41.876;23.474;2023-06-14T04:08:32;15.70;99.90
19389;DHT22;9830;41.876;23.474;2023-06-14T04:10:57;15.70;99.90
19389;DHT22;9830;41.876;23.474;2023-06-14T04:13:23;15.70;99.90
19389;DHT22;9830;41.876;23.474;2023-06-14T04:15:49;15.70;99.90
19389;DHT22;9830;41.876;23.474;2023-06-14T04:18:15;15.80;99.90
19389;DHT22;9830;41.876;23.474;2023-06-14T04:20:40;15.80;99.90
19389;DHT22;9830;41.876;23.474;2023-06-14T04:23:17;15.80;99.90
19389;DHT22;9830;41.876;23.474;2023-06-14T04:25:47;15.70;99.90
19389;DHT22;9830;41.876;23.474;2023-06-14T04:28:16;15.70;99.90
19389;DHT22;9830;41.876;23.474;2023-06-14T04:30:43;15.70;99.90
19389;DHT22;9830;41.876;23.474;2023-06-14T04:33:08;15.70;99.90
19389;DHT22;9830;41.876;23.474;2023-06-14T04:35:35;15.80;99.90
19389;DHT22;9830;41.876;23.474;2023-06-14T04:38:03;16.10;99.90
19389;DHT22;9830;41.876;23.474;2023-06-14T04:40:30;16.30;99.90
19389;DHT22;9830;41.876;23.474;2023-06-14T04:42:56;16.60;99.90
19389;DHT22;9830;41.876;23.474;2023-06-14T04:45:23;16.70;99.90
19389;DHT22;9830;41.876;23.474;2023-06-14T04:47:49;16.80;99.90
19389;DHT22;9830;41.876;23.474;2023-06-14T04:50:16;17.00;99.90
19389;DHT22;9830;41.876;23.474;2023-06-14T04:52:42;17.00;99.90
19389;DHT22;9830;41.876;23.474;2023-06-14T04:55:08;16.90;99.90
19389;DHT22;9830;41.876;23.474;2023-06-14T04:57:34;16.90;99.90
19389;DHT22;9830;41.876;23.474;2023-06-14T05:00:00;16.70;99.90
19389;DHT22;9830;41.876;23.474;2023-06-14T05:02:26;16.70;99.90
19389;DHT22;9830;41.876;23.474;2023-06-14T05:04:53;16.60;99.90
19389;DHT22;9830;41.876;23.474;2023-06-14T05:07:19;16.70;99.90
19389;DHT22;9830;41.876;23.474;2023-06-14T05:09:45;16.70;99.90
19389;DHT22;9830;41.876;23.474;2023-06-14T05:12:11;16.70;99.90
19389;DHT22;9830;41.876;23.474;2023-06-14T05:14:37;16.80;99.90
19389;DHT22;9830;41.876;23.474;2023-06-14T05:17:02;16.70;99.90
19389;DHT22;9830;41.876;23.474;2023-06-14T05:19:28;16.80;99.90
19389;DHT22;9830;41.876;23.474;2023-06-14T05:21:54;16.70;99.90
19389;DHT22;9830;41.876;23.474;2023-06-14T05:24:20;16.70;99.90
19389;DHT22;9830;41.876;23.474;2023-06-14T05:26:46;16.80;99.90
19389;DHT22;9830;41.876;23.474;2023-06-14T05:29:12;16.90;99.90
19389;DHT22;9830;41.876;23.474;2023-06-14T05:31:38;17.00;99.90
19389;DHT22;9830;41.876;23.474;2023-06-14T05:34:04;17.20;99.90
19389;DHT22;9830;41.876;23.474;2023-06-14T05:36:30;17.40;99.90
19389;DHT22;9830;41.876;23.474;2023-06-14T05:38:55;17.60;99.90
19389;DHT22;9830;41.876;23.474;2023-06-14T05:41:27;17.70;99.90
19389;DHT22;9830;41.876;23.474;2023-06-14T05:43:54;17.90;99.90
19389;DHT22;9830;41.876;23.474;2023-06-14T05:46:21;18.00;99.90
19389;DHT22;9830;41.876;23.474;2023-06-14T05:48:50;18.40;99.90
19389;DHT22;9830;41.876;23.474;2023-06-14T05:51:16;18.30;99.90
19389;DHT22;9830;41.876;23.474;2023-06-14T05:53:45;18.60;99.90
19389;DHT22;9830;41.876;23.474;2023-06-14T05:56:11;18.90;99.90
19389;DHT22;9830;41.876;23.474;2023-06-14T05:58:37;19.10;99.90
19389;DHT22;9830;41.876;23.474;2023-06-14T06:01:03;19.20;99.90
19389;DHT22;9830;41.876;23.474;2023-06-14T06:03:28;19.40;99.90
19389;DHT22;9830;41.876;23.474;2023-06-14T06:05:55;20.20;99.90
19389;DHT22;9830;41.876;23.474;2023-06-14T06:08:21;22.20;99.90
19389;DHT22;9830;41.876;23.474;2023-06-14T06:10:46;25.30;99.90
19389;DHT22;9830;41.876;23.474;2023-06-14T06:13:12;27.70;95.50
19389;DHT22;9830;41.876;23.474;2023-06-14T06:15:38;29.00;91.80
19389;DHT22;9830;41.876;23.474;2023-06-14T06:18:03;29.00;87.00
19389;DHT22;9830;41.876;23.474;2023-06-14T06:20:29;29.10;80.10
19389;DHT22;9830;41.876;23.474;2023-06-14T06:23:00;28.30;81.60
19389;DHT22;9830;41.876;23.474;2023-06-14T06:25:26;29.00;74.50
19389;DHT22;9830;41.876;23.474;2023-06-14T06:27:53;27.80;84.30
19389;DHT22;9830;41.876;23.474;2023-06-14T06:30:19;26.90;90.80
19389;DHT22;9830;41.876;23.474;2023-06-14T06:32:45;26.20;91.90
19389;DHT22;9830;41.876;23.474;2023-06-14T06:35:11;25.50;94.30
19389;DHT22;9830;41.876;23.474;2023-06-14T06:37:38;24.90;96.80
19389;DHT22;9830;41.876;23.474;2023-06-14T06:40:04;24.70;99.90
19389;DHT22;9830;41.876;23.474;2023-06-14T06:42:31;24.90;99.30
19389;DHT22;9830;41.876;23.474;2023-06-14T06:44:57;25.90;98.30
19389;DHT22;9830;41.876;23.474;2023-06-14T06:47:23;27.10;92.40
19389;DHT22;9830;41.876;23.474;2023-06-14T06:49:50;28.60;76.10
19389;DHT22;9830;41.876;23.474;2023-06-14T06:52:16;30.10;61.20
19389;DHT22;9830;41.876;23.474;2023-06-14T06:54:41;30.10;57.60
19389;DHT22;9830;41.876;23.474;2023-06-14T06:57:07;29.50;59.50
19389;DHT22;9830;41.876;23.474;2023-06-14T06:59:34;28.10;65.90
19389;DHT22;9830;41.876;23.474;2023-06-14T07:01:59;27.90;71.40
19389;DHT22;9830;41.876;23.474;2023-06-14T07:04:25;27.90;72.40
19389;DHT22;9830;41.876;23.474;2023-06-14T07:06:51;28.10;70.50
19389;DHT22;9830;41.876;23.474;2023-06-14T07:09:17;28.10;74.50
19389;DHT22;9830;41.876;23.474;2023-06-14T07:11:47;28.30;72.10
19389;DHT22;9830;41.876;23.474;2023-06-14T07:14:12;28.80;68.80
19389;DHT22;9830;41.876;23.474;2023-06-14T07:16:38;28.50;63.50
19389;DHT22;9830;41.876;23.474;2023-06-14T07:19:04;27.80;69.80
19389;DHT22;9830;41.876;23.474;2023-06-14T07:21:30;29.20;64.90
19389;DHT22;9830;41.876;23.474;2023-06-14T07:23:56;30.60;59.10
19389;DHT22;9830;41.876;23.474;2023-06-14T07:26:22;31.50;54.10
19389;DHT22;9830;41.876;23.474;2023-06-14T07:28:49;33.00;48.60
19389;DHT22;9830;41.876;23.474;2023-06-14T07:31:17;34.40;45.50
19389;DHT22;9830;41.876;23.474;2023-06-14T07:33:45;34.20;43.70
19389;DHT22;9830;41.876;23.474;2023-06-14T07:36:11;33.00;45.60
19389;DHT22;9830;41.876;23.474;2023-06-14T07:38:36;33.50;48.00
19389;DHT22;9830;41.876;23.474;2023-06-14T07:41:02;32.50;47.00
19389;DHT22;9830;41.876;23.474;2023-06-14T07:43:28;33.10;46.00
19389;DHT22;9830;41.876;23.474;2023-06-14T07:45:54;33.80;46.90
19389;DHT22;9830;41.876;23.474;2023-06-14T07:48:20;33.80;45.60
19389;DHT22;9830;41.876;23.474;2023-06-14T07:50:46;34.80;43.20
19389;DHT22;9830;41.876;23.474;2023-06-14T07:53:12;34.30;39.30
19389;DHT22;9830;41.876;23.474;2023-06-14T07:55:37;35.40;39.90
19389;DHT22;9830;41.876;23.474;2023-06-14T07:58:04;35.60;39.20
19389;DHT22;9830;41.876;23.474;2023-06-14T08:00:30;36.50;35.10
19389;DHT22;9830;41.876;23.474;2023-06-14T08:02:57;37.10;34.20
19389;DHT22;9830;41.876;23.474;2023-06-14T08:05:25;38.90;32.10
19389;DHT22;9830;41.876;23.474;2023-06-14T08:07:51;37.10;34.80
19389;DHT22;9830;41.876;23.474;2023-06-14T08:10:17;35.40;37.40
19389;DHT22;9830;41.876;23.474;2023-06-14T08:12:43;34.70;37.00
19389;DHT22;9830;41.876;23.474;2023-06-14T08:15:09;34.70;40.10
19389;DHT22;9830;41.876;23.474;2023-06-14T08:17:35;35.60;36.90
19389;DHT22;9830;41.876;23.474;2023-06-14T08:20:01;37.80;33.20
19389;DHT22;9830;41.876;23.474;2023-06-14T08:22:26;37.90;33.10
19389;DHT22;9830;41.876;23.474;2023-06-14T08:24:54;37.80;33.10
19389;DHT22;9830;41.876;23.474;2023-06-14T08:27:20;37.90;32.30
19389;DHT22;9830;41.876;23.474;2023-06-14T08:29:46;36.80;33.80
19389;DHT22;9830;41.876;23.474;2023-06-14T08:32:12;35.20;36.70
19389;DHT22;9830;41.876;23.474;2023-06-14T08:34:38;36.70;34.60
19389;DHT22;9830;41.876;23.474;2023-06-14T08:37:03;36.50;36.70
19389;DHT22;9830;41.876;23.474;2023-06-14T08:39:30;36.60;35.70
19389;DHT22;9830;41.876;23.474;2023-06-14T08:41:57;36.80;35.30
19389;DHT22;9830;41.876;23.474;2023-06-14T08:44:23;36.50;35.80
19389;DHT22;9830;41.876;23.474;2023-06-14T08:46:50;37.50;34.20
19389;DHT22;9830;41.876;23.474;2023-06-14T08:49:19;38.40;32.00
19389;DHT22;9830;41.876;23.474;2023-06-14T08:51:45;36.70;34.70
19389;DHT22;9830;41.876;23.474;2023-06-14T08:54:13;36.10;36.70
19389;DHT22;9830;41.876;23.474;2023-06-14T08:56:40;37.30;36.10
19389;DHT22;9830;41.876;23.474;2023-06-14T08:59:07;36.90;35.10
19389;DHT22;9830;41.876;23.474;2023-06-14T09:01:34;37.50;34.90
19389;DHT22;9830;41.876;23.474;2023-06-14T09:04:00;39.10;33.00
19389;DHT22;9830;41.876;23.474;2023-06-14T09:06:27;37.90;32.40
19389;DHT22;9830;41.876;23.474;2023-06-14T09:08:55;37.40;36.00
19389;DHT22;9830;41.876;23.474;2023-06-14T09:11:23;37.20;36.50
19389;DHT22;9830;41.876;23.474;2023-06-14T09:13:49;37.60;35.80
19389;DHT22;9830;41.876;23.474;2023-06-14T09:16:15;37.10;36.80
19389;DHT22;9830;41.876;23.474;2023-06-14T09:18:41;34.80;39.00
19389;DHT22;9830;41.876;23.474;2023-06-14T09:21:10;34.60;40.70
19389;DHT22;9830;41.876;23.474;2023-06-14T09:23:37;35.30;41.30
19389;DHT22;9830;41.876;23.474;2023-06-14T09:26:16;35.90;38.50
19389;DHT22;9830;41.876;23.474;2023-06-14T09:28:47;35.10;38.60
19389;DHT22;9830;41.876;23.474;2023-06-14T09:31:22;35.70;38.30
19389;DHT22;9830;41.876;23.474;2023-06-14T09:33:49;35.70;39.00
19389;DHT22;9830;41.876;23.474;2023-06-14T09:36:21;35.70;37.10
19389;DHT22;9830;41.876;23.474;2023-06-14T09:38:57;36.30;36.90
19389;DHT22;9830;41.876;23.474;2023-06-14T09:41:36;36.50;38.20
19389;DHT22;9830;41.876;23.474;2023-06-14T09:44:04;36.60;37.00
19389;DHT22;9830;41.876;23.474;2023-06-14T09:46:31;36.50;35.70
19389;DHT22;9830;41.876;23.474;2023-06-14T09:48:57;34.60;38.60
19389;DHT22;9830;41.876;23.474;2023-06-14T09:51:24;34.30;39.60
19389;DHT22;9830;41.876;23.474;2023-06-14T09:53:50;34.30;40.60
19389;DHT22;9830;41.876;23.474;2023-06-14T09:56:34;33.00;39.70
19389;DHT22;9830;41.876;23.474;2023-06-14T09:59:04;32.00;42.00
19389;DHT22;9830;41.876;23.474;2023-06-14T10:01:31;31.80;41.20
19389;DHT22;9830;41.876;23.474;2023-06-14T10:04:04;32.20;41.80
19389;DHT22;9830;41.876;23.474;2023-06-14T10:06:31;32.00;41.20
19389;DHT22;9830;41.876;23.474;2023-06-14T10:08:58;31.80;45.50
19389;DHT22;9830;41.876;23.474;2023-06-14T10:11:27;32.00;43.20
19389;DHT22;9830;41.876;23.474;2023-06-14T10:13:55;32.50;42.10
19389;DHT22;9830;41.876;23.474;2023-06-14T10:16:25;32.80;41.10
19389;DHT22;9830;41.876;23.474;2023-06-14T10:22:09;32.80;38.30
19389;DHT22;9830;41.876;23.474;2023-06-14T10:24:43;33.10;38.90
19389;DHT22;9830;41.876;23.474;2023-06-14T10:27:10;32.60;39.10
19389;DHT22;9830;41.876;23.474;2023-06-14T10:32:20;31.10;43.70
19389;DHT22;9830;41.876;23.474;2023-06-14T10:34:49;30.50;46.40
19389;DHT22;9830;41.876;23.474;2023-06-14T10:37:18;29.80;48.40
19389;DHT22;9830;41.876;23.474;2023-06-14T10:39:45;29.30;52.40
19389;DHT22;9830;41.876;23.474;2023-06-14T10:42:14;28.90;54.60
19389;DHT22;9830;41.876;23.474;2023-06-14T10:44:49;28.10;54.80
19389;DHT22;9830;41.876;23.474;2023-06-14T10:52:28;26.90;61.00
19389;DHT22;9830;41.876;23.474;2023-06-14T10:55:09;26.70;68.70
19389;DHT22;9830;41.876;23.474;2023-06-14T10:57:52;26.50;72.50
19389;DHT22;9830;41.876;23.474;2023-06-14T11:00:23;26.00;98.60
19389;DHT22;9830;41.876;23.474;2023-06-14T11:10:39;25.30;99.90
19389;DHT22;9830;41.876;23.474;2023-06-14T11:13:08;25.40;99.90
19389;DHT22;9830;41.876;23.474;2023-06-14T11:15:38;25.50;99.90
19389;DHT22;9830;41.876;23.474;2023-06-14T11:18:05;25.60;99.90
19389;DHT22;9830;41.876;23.474;2023-06-14T11:20:33;25.70;99.90
19389;DHT22;9830;41.876;23.474;2023-06-14T11:22:59;25.70;99.90
19389;DHT22;9830;41.876;23.474;2023-06-14T11:25:25;25.70;99.90
19389;DHT22;9830;41.876;23.474;2023-06-14T11:27:52;25.80;98.60
19389;DHT22;9830;41.876;23.474;2023-06-14T11:30:18;26.00;95.10
19389;DHT22;9830;41.876;23.474;2023-06-14T11:32:50;26.40;94.70
19389;DHT22;9830;41.876;23.474;2023-06-14T11:35:18;26.60;93.20
19389;DHT22;9830;41.876;23.474;2023-06-14T11:37:44;26.80;91.70
19389;DHT22;9830;41.876;23.474;2023-06-14T11:40:11;27.10;86.10
19389;DHT22;9830;41.876;23.474;2023-06-14T11:42:40;27.00;90.30
19389;DHT22;9830;41.876;23.474;2023-06-14T11:45:10;27.40;84.50
19389;DHT22;9830;41.876;23.474;2023-06-14T11:47:37;27.50;84.80
19389;DHT22;9830;41.876;23.474;2023-06-14T11:50:04;27.80;81.30
19389;DHT22;9830;41.876;23.474;2023-06-14T11:52:31;28.00;80.00
19389;DHT22;9830;41.876;23.474;2023-06-14T11:54:57;28.50;75.20
19389;DHT22;9830;41.876;23.474;2023-06-14T11:57:24;28.70;72.90
19389;DHT22;9830;41.876;23.474;2023-06-14T11:59:50;28.40;64.80
19389;DHT22;9830;41.876;23.474;2023-06-14T12:02:16;28.00;63.20
19389;DHT22;9830;41.876;23.474;2023-06-14T12:04:48;27.70;61.20
19389;DHT22;9830;41.876;23.474;2023-06-14T12:07:16;25.40;75.20
19389;DHT22;9830;41.876;23.474;2023-06-14T12:12:25;22.90;98.50
19389;DHT22;9830;41.876;23.474;2023-06-14T12:14:51;22.30;99.90
19389;DHT22;9830;41.876;23.474;2023-06-14T12:17:18;22.40;99.90
19389;DHT22;9830;41.876;23.474;2023-06-14T12:19:46;22.50;99.90
19389;DHT22;9830;41.876;23.474;2023-06-14T12:22:15;22.40;99.90
19389;DHT22;9830;41.876;23.474;2023-06-14T12:24:44;22.50;99.90
19389;DHT22;9830;41.876;23.474;2023-06-14T12:27:10;22.80;99.90
19389;DHT22;9830;41.876;23.474;2023-06-14T12:29:41;23.00;99.90
19389;DHT22;9830;41.876;23.474;2023-06-14T12:32:10;23.40;97.70
19389;DHT22;9830;41.876;23.474;2023-06-14T12:34:36;23.60;95.50
19389;DHT22;9830;41.876;23.474;2023-06-14T12:37:02;23.90;90.20
19389;DHT22;9830;41.876;23.474;2023-06-14T12:39:30;23.80;92.10
19389;DHT22;9830;41.876;23.474;2023-06-14T12:41:57;24.10;90.00
19389;DHT22;9830;41.876;23.474;2023-06-14T12:44:23;24.50;88.40
19389;DHT22;9830;41.876;23.474;2023-06-14T12:46:49;24.10;91.20
19389;DHT22;9830;41.876;23.474;2023-06-14T12:49:16;24.20;84.20
19389;DHT22;9830;41.876;23.474;2023-06-14T12:51:42;24.20;73.80
19389;DHT22;9830;41.876;23.474;2023-06-14T12:54:08;24.60;74.50
19389;DHT22;9830;41.876;23.474;2023-06-14T12:56:34;24.70;80.10
19389;DHT22;9830;41.876;23.474;2023-06-14T12:58:59;25.30;73.80
19389;DHT22;9830;41.876;23.474;2023-06-14T13:01:25;25.00;76.90
19389;DHT22;9830;41.876;23.474;2023-06-14T13:03:51;24.90;75.60
19389;DHT22;9830;41.876;23.474;2023-06-14T13:06:21;25.10;75.10
19389;DHT22;9830;41.876;23.474;2023-06-14T13:08:48;24.90;77.80
19389;DHT22;9830;41.876;23.474;2023-06-14T13:11:14;24.80;86.40
19389;DHT22;9830;41.876;23.474;2023-06-14T13:13:40;24.70;86.10
19389;DHT22;9830;41.876;23.474;2023-06-14T13:16:05;24.60;81.00
19389;DHT22;9830;41.876;23.474;2023-06-14T13:18:31;24.60;78.90
19389;DHT22;9830;41.876;23.474;2023-06-14T13:20:58;24.60;86.60
19389;DHT22;9830;41.876;23.474;2023-06-14T13:23:24;24.30;91.60
19389;DHT22;9830;41.876;23.474;2023-06-14T13:25:49;23.90;91.50
19389;DHT22;9830;41.876;23.474;2023-06-14T13:28:16;23.60;92.70
19389;DHT22;9830;41.876;23.474;2023-06-14T13:30:42;23.90;95.00
19389;DHT22;9830;41.876;23.474;2023-06-14T13:33:08;24.00;89.90
19389;DHT22;9830;41.876;23.474;2023-06-14T13:35:33;24.00;91.60
19389;DHT22;9830;41.876;23.474;2023-06-14T13:37:59;24.00;86.20
19389;DHT22;9830;41.876;23.474;2023-06-14T13:40:25;24.00;90.90
19389;DHT22;9830;41.876;23.474;2023-06-14T13:42:51;23.80;91.30
19389;DHT22;9830;41.876;23.474;2023-06-14T13:45:17;23.60;91.20
19389;DHT22;9830;41.876;23.474;2023-06-14T13:47:42;23.30;91.00
19389;DHT22;9830;41.876;23.474;2023-06-14T13:50:08;23.20;92.30
19389;DHT22;9830;41.876;23.474;2023-06-14T13:52:34;23.10;94.00
19389;DHT22;9830;41.876;23.474;2023-06-14T13:55:00;22.90;96.10
19389;DHT22;9830;41.876;23.474;2023-06-14T13:57:26;22.70;98.40
19389;DHT22;9830;41.876;23.474;2023-06-14T13:59:52;22.60;97.90
19389;DHT22;9830;41.876;23.474;2023-06-14T14:02:20;22.50;98.20
19389;DHT22;9830;41.876;23.474;2023-06-14T14:04:46;22.50;94.90
19389;DHT22;9830;41.876;23.474;2023-06-14T14:07:18;22.40;95.90
19389;DHT22;9830;41.876;23.474;2023-06-14T14:09:44;22.50;99.80
19389;DHT22;9830;41.876;23.474;2023-06-14T14:12:10;22.80;98.40
19389;DHT22;9830;41.876;23.474;2023-06-14T14:14:36;22.90;97.20
19389;DHT22;9830;41.876;23.474;2023-06-14T14:17:02;22.90;93.90
19389;DHT22;9830;41.876;23.474;2023-06-14T14:19:28;23.00;97.00
19389;DHT22;9830;41.876;23.474;2023-06-14T14:21:54;23.40;94.20
19389;DHT22;9830;41.876;23.474;2023-06-14T14:24:19;23.80;91.70
19389;DHT22;9830;41.876;23.474;2023-06-14T14:26:45;24.10;91.20
19389;DHT22;9830;41.876;23.474;2023-06-14T14:29:14;24.10;86.60
19389;DHT22;9830;41.876;23.474;2023-06-14T14:31:39;23.80;91.90
19389;DHT22;9830;41.876;23.474;2023-06-14T14:34:05;24.10;92.20
19389;DHT22;9830;41.876;23.474;2023-06-14T14:36:31;24.20;91.50
19389;DHT22;9830;41.876;23.474;2023-06-14T14:38:58;24.30;85.90
19389;DHT22;9830;41.876;23.474;2023-06-14T14:41:24;24.10;87.90
19389;DHT22;9830;41.876;23.474;2023-06-14T14:43:50;24.00;86.40
19389;DHT22;9830;41.876;23.474;2023-06-14T14:46:16;23.90;87.20
19389;DHT22;9830;41.876;23.474;2023-06-14T14:48:42;23.90;88.60
19389;DHT22;9830;41.876;23.474;2023-06-14T14:51:08;23.90;88.20
19389;DHT22;9830;41.876;23.474;2023-06-14T14:53:33;24.30;78.00
19389;DHT22;9830;41.876;23.474;2023-06-14T14:56:00;23.90;78.60
19389;DHT22;9830;41.876;23.474;2023-06-14T14:58:26;24.00;75.40
19389;DHT22;9830;41.876;23.474;2023-06-14T15:00:52;23.90;77.70
19389;DHT22;9830;41.876;23.474;2023-06-14T15:03:18;24.10;70.70
19389;DHT22;9830;41.876;23.474;2023-06-14T15:05:43;24.10;70.50
19389;DHT22;9830;41.876;23.474;2023-06-14T15:08:09;24.10;70.90
19389;DHT22;9830;41.876;23.474;2023-06-14T15:10:38;24.10;70.00
19389;DHT22;9830;41.876;23.474;2023-06-14T15:13:08;23.80;71.90
19389;DHT22;9830;41.876;23.474;2023-06-14T15:15:35;23.70;75.90
19389;DHT22;9830;41.876;23.474;2023-06-14T15:18:01;23.90;73.10
19389;DHT22;9830;41.876;23.474;2023-06-14T15:20:27;24.00;73.40
19389;DHT22;9830;41.876;23.474;2023-06-14T15:22:54;23.70;78.00
19389;DHT22;9830;41.876;23.474;2023-06-14T15:25:29;23.50;81.60
19389;DHT22;9830;41.876;23.474;2023-06-14T15:27:55;23.50;72.20
19389;DHT22;9830;41.876;23.474;2023-06-14T15:30:21;23.50;76.70
19389;DHT22;9830;41.876;23.474;2023-06-14T15:32:47;23.50;79.00
19389;DHT22;9830;41.876;23.474;2023-06-14T15:35:14;23.30;79.00
19389;DHT22;9830;41.876;23.474;2023-06-14T15:37:40;23.20;82.90
19389;DHT22;9830;41.876;23.474;2023-06-14T15:40:06;23.00;81.80
19389;DHT22;9830;41.876;23.474;2023-06-14T15:42:32;22.90;89.30
19389;DHT22;9830;41.876;23.474;2023-06-14T15:44:57;22.90;87.90
19389;DHT22;9830;41.876;23.474;2023-06-14T15:47:23;22.90;90.40
19389;DHT22;9830;41.876;23.474;2023-06-14T15:49:49;22.80;91.40